createdAt,value
2022-08-16T00:01:21.987Z,97277.91
2022-08-16T00:03:51.862Z,97279.75
2022-08-16T00:06:21.158Z,97281.50
2022-08-16T00:08:48.039Z,97285.34
2022-08-16T00:11:16.642Z,97281.63
2022-08-16T00:13:53.101Z,97271.94
2022-08-16T00:17:11.583Z,97275.66
2022-08-16T00:19:15.465Z,97265.81
2022-08-16T00:21:43.138Z,97277.22
2022-08-16T00:24:11.434Z,97259.44
2022-08-16T00:26:44.415Z,97258.28
2022-08-16T00:29:15.377Z,97268.28
2022-08-16T00:31:59.883Z,97259.94
2022-08-16T00:34:43.569Z,97260.59
2022-08-16T00:37:17.025Z,97261.91
2022-08-16T00:39:47.108Z,97268.31
2022-08-16T00:42:29.626Z,97280.81
2022-08-16T00:45:06.411Z,97274.63
2022-08-16T00:47:37.099Z,97269.25
2022-08-16T00:50:11.329Z,97250.28
2022-08-16T00:52:50.482Z,97258.53
2022-08-16T00:55:20.223Z,97277.91
2022-08-16T00:57:59.939Z,97275.78
2022-08-16T01:00:29.262Z,97273.34
2022-08-16T01:02:58.294Z,97280.00
2022-08-16T01:05:25.562Z,97269.34
2022-08-16T01:07:53.934Z,97276.97
2022-08-16T01:10:32.574Z,97273.81
2022-08-16T01:13:15.841Z,97264.97
2022-08-16T01:15:58.838Z,97260.31
2022-08-16T01:18:40.784Z,97269.19
2022-08-16T01:21:22.508Z,97266.72
2022-08-16T01:24:52.726Z,97262.78
2022-08-16T01:27:29.213Z,97270.09
2022-08-16T01:30:19.617Z,97272.31
2022-08-16T01:33:02.766Z,97267.19
2022-08-16T01:35:47.465Z,97271.97
2022-08-16T01:38:36.687Z,97273.84
2022-08-16T01:41:08.642Z,97265.56
2022-08-16T01:43:37.672Z,97269.66
2022-08-16T01:46:30.033Z,97268.72
2022-08-16T01:49:01.981Z,97260.81
2022-08-16T01:51:29.590Z,97244.25
2022-08-16T01:53:56.510Z,97271.84
2022-08-16T01:56:24.843Z,97268.81
2022-08-16T01:58:55.035Z,97267.97
2022-08-16T02:01:23.041Z,97272.56
2022-08-16T02:03:53.128Z,97274.63
2022-08-16T02:06:34.640Z,97254.47
2022-08-16T02:09:07.230Z,97259.09
2022-08-16T02:11:47.424Z,97249.09
2022-08-16T02:14:21.376Z,97263.91
2022-08-16T02:16:50.032Z,97253.84
2022-08-16T02:19:21.331Z,97251.75
2022-08-16T02:22:08.807Z,97239.16
2022-08-16T02:24:45.839Z,97263.09
2022-08-16T02:27:13.617Z,97262.75
2022-08-16T02:29:42.833Z,97259.59
2022-08-16T02:32:50.506Z,97257.50
2022-08-16T02:34:58.355Z,97232.69
2022-08-16T02:37:24.910Z,97239.91
2022-08-16T02:40:16.319Z,97234.19
2022-08-16T02:42:50.682Z,97238.97
2022-08-16T02:45:20.451Z,97231.03
2022-08-16T02:48:00.995Z,97222.03
2022-08-16T02:50:55.332Z,97233.13
2022-08-16T02:53:25.992Z,97233.94
2022-08-16T02:55:53.638Z,97228.03
2022-08-16T02:58:25.188Z,97216.03
2022-08-16T03:00:55.942Z,97230.97
2022-08-16T03:03:25.121Z,97234.69
2022-08-16T03:05:53.076Z,97220.25
2022-08-16T03:08:49.863Z,97222.31
2022-08-16T03:11:17.756Z,97224.78
2022-08-16T03:13:56.728Z,97211.50
2022-08-16T03:16:36.632Z,97230.63
2022-08-16T03:19:06.806Z,97217.34
2022-08-16T03:21:37.553Z,97220.22
2022-08-16T03:24:29.300Z,97218.94
2022-08-16T03:26:53.344Z,97213.22
2022-08-16T03:29:27.273Z,97217.53
2022-08-16T03:31:57.403Z,97221.34
2022-08-16T03:34:26.318Z,97209.94
2022-08-16T03:36:53.394Z,97212.19
2022-08-16T03:39:20.657Z,97210.97
2022-08-16T03:41:50.109Z,97210.53
2022-08-16T03:44:43.465Z,97215.56
2022-08-16T03:47:10.382Z,97209.50
2022-08-16T03:49:37.554Z,97194.94
2022-08-16T03:52:05.964Z,97221.72
2022-08-16T03:54:32.784Z,97201.81
2022-08-16T03:57:05.081Z,97208.31
2022-08-16T03:59:32.299Z,97219.75
2022-08-16T04:02:01.262Z,97226.03
2022-08-16T04:04:32.311Z,97213.47
2022-08-16T04:07:02.866Z,97215.91
2022-08-16T04:09:35.640Z,97218.25
2022-08-16T04:12:11.389Z,97205.41
2022-08-16T04:14:53.139Z,97204.97
2022-08-16T04:17:20.994Z,97204.25
2022-08-16T04:19:47.663Z,97210.88
2022-08-16T04:22:19.571Z,97205.66
2022-08-16T04:24:55.081Z,97224.97
2022-08-16T04:27:24.646Z,97200.84
2022-08-16T04:30:03.234Z,97221.22
2022-08-16T04:32:30.717Z,97190.91
2022-08-16T04:34:57.269Z,97213.91
2022-08-16T04:37:26.290Z,97204.44
2022-08-16T04:39:55.589Z,97220.28
2022-08-16T04:42:25.798Z,97202.19
2022-08-16T04:44:58.785Z,97208.88
2022-08-16T04:47:35.431Z,97218.66
2022-08-16T04:50:24.067Z,97227.03
2022-08-16T04:52:57.899Z,97205.84
2022-08-16T04:55:31.869Z,97214.59
2022-08-16T04:58:45.225Z,97229.63
2022-08-16T05:00:53.172Z,97234.50
2022-08-16T05:03:20.929Z,97233.56
2022-08-16T05:05:59.154Z,97220.50
2022-08-16T05:08:31.717Z,97237.84
2022-08-16T05:11:03.696Z,97242.19
2022-08-16T05:13:41.176Z,97236.56
2022-08-16T05:16:20.082Z,97249.50
2022-08-16T05:18:50.529Z,97251.13
2022-08-16T05:21:17.525Z,97237.63
2022-08-16T05:23:55.877Z,97249.78
2022-08-16T05:26:29.560Z,97241.63
2022-08-16T05:29:03.685Z,97242.59
2022-08-16T05:31:31.575Z,97214.84
2022-08-16T05:34:03.301Z,97235.84
2022-08-16T05:36:34.057Z,97226.78
2022-08-16T05:39:05.982Z,97233.88
2022-08-16T05:41:33.064Z,97243.31
2022-08-16T05:44:23.279Z,97230.38
2022-08-16T05:46:57.331Z,97230.84
2022-08-16T05:49:39.516Z,97229.69
2022-08-16T05:52:13.536Z,97221.41
2022-08-16T05:54:47.454Z,97234.25
2022-08-16T05:57:19.279Z,97215.81
2022-08-16T05:59:50.507Z,97227.09
2022-08-16T06:02:28.965Z,97211.50
2022-08-16T06:04:55.829Z,97211.72
2022-08-16T06:07:24.369Z,97221.69
2022-08-16T06:09:52.703Z,97217.81
2022-08-16T06:12:27.982Z,97204.84
2022-08-16T06:14:59.136Z,97213.41
2022-08-16T06:17:42.532Z,97220.88
2022-08-16T06:20:25.476Z,97204.25
2022-08-16T06:23:11.764Z,97188.00
2022-08-16T06:25:44.729Z,97208.44
2022-08-16T06:28:34.757Z,97217.72
2022-08-16T06:31:02.754Z,97218.75
2022-08-16T06:33:41.569Z,97210.66
2022-08-16T06:36:11.797Z,97207.13
2022-08-16T06:38:55.506Z,97197.88
2022-08-16T06:41:23.045Z,97196.53
2022-08-16T06:43:51.319Z,97209.25
2022-08-16T06:46:34.068Z,97186.13
2022-08-16T06:49:06.936Z,97201.03
2022-08-16T06:51:46.626Z,97199.00
2022-08-16T06:54:15.601Z,97174.66
2022-08-16T06:56:42.640Z,97196.47
2022-08-16T06:59:10.605Z,97199.44
2022-08-16T07:01:43.151Z,97201.81
2022-08-16T07:04:12.119Z,97193.47
2022-08-16T07:06:43.283Z,97178.34
2022-08-16T07:09:11.325Z,97176.31
2022-08-16T07:11:48.027Z,97171.97
2022-08-16T07:14:24.491Z,97175.72
2022-08-16T07:16:55.230Z,97164.78
2022-08-16T07:19:21.794Z,97159.28
2022-08-16T07:22:37.834Z,97170.53
2022-08-16T07:24:54.950Z,97155.47
2022-08-16T07:27:21.951Z,97156.34
2022-08-16T07:29:51.431Z,97166.66
2022-08-16T07:32:29.287Z,97178.03
2022-08-16T07:34:56.539Z,97174.78
2022-08-16T07:37:24.104Z,97179.59
2022-08-16T07:39:51.113Z,97178.75
2022-08-16T07:42:28.236Z,97173.84
2022-08-16T07:45:01.596Z,97165.91
2022-08-16T07:47:31.540Z,97165.28
2022-08-16T07:49:59.474Z,97157.88
2022-08-16T07:52:29.799Z,97158.81
2022-08-16T07:54:57.781Z,97167.59
2022-08-16T07:57:24.996Z,97173.91
2022-08-16T07:59:51.874Z,97171.47
2022-08-16T08:02:20.240Z,97157.22
2022-08-16T08:04:47.493Z,97161.31
2022-08-16T08:07:16.349Z,97169.41
2022-08-16T08:09:44.228Z,97160.81
2022-08-16T08:12:32.053Z,97159.41
2022-08-16T08:15:04.608Z,97141.94
2022-08-16T08:17:42.946Z,97170.41
2022-08-16T08:20:20.830Z,97174.25
2022-08-16T08:23:01.158Z,97170.97
2022-08-16T08:25:54.403Z,97167.44
2022-08-16T08:28:20.028Z,97168.59
2022-08-16T08:30:51.738Z,97142.06
2022-08-16T08:33:28.710Z,97158.09
2022-08-16T08:36:01.159Z,97160.91
2022-08-16T08:38:45.020Z,97137.47
2022-08-16T08:41:13.402Z,97152.72
2022-08-16T08:43:41.657Z,97151.09
2022-08-16T08:46:12.475Z,97147.91
2022-08-16T08:48:45.851Z,97156.44
2022-08-16T08:51:35.680Z,97155.38
2022-08-16T08:54:09.371Z,97149.13
2022-08-16T08:56:37.783Z,97151.66
2022-08-16T08:59:19.789Z,97155.75
2022-08-16T09:01:57.349Z,97157.47
2022-08-16T09:04:26.596Z,97129.84
2022-08-16T09:06:53.950Z,97148.75
2022-08-16T09:09:21.250Z,97144.47
2022-08-16T09:11:53.554Z,97154.72
2022-08-16T09:14:32.291Z,97157.19
2022-08-16T09:17:02.771Z,97134.66
2022-08-16T09:19:34.187Z,97152.88
2022-08-16T09:22:02.145Z,97152.31
2022-08-16T09:24:47.168Z,97145.13
2022-08-16T09:27:16.400Z,97149.59
2022-08-16T09:29:45.254Z,97144.19
2022-08-16T09:32:28.436Z,97147.59
2022-08-16T09:34:58.383Z,97136.66
2022-08-16T09:37:29.766Z,97137.72
2022-08-16T09:55:26.018Z,97130.78
2022-08-16T09:58:00.549Z,97123.88
2022-08-16T10:00:43.993Z,97133.75
2022-08-16T10:03:11.978Z,97120.28
2022-08-16T10:05:39.068Z,97128.78
2022-08-16T10:08:25.336Z,97129.59
2022-08-16T10:11:12.719Z,97133.22
2022-08-16T10:13:41.584Z,97121.72
2022-08-16T10:19:00.209Z,97121.34
2022-08-16T10:21:29.122Z,97120.06
2022-08-16T10:23:58.578Z,97115.97
2022-08-16T10:27:18.899Z,97099.97
2022-08-16T10:29:12.199Z,97111.53
2022-08-16T10:31:53.731Z,97102.06
2022-08-16T10:34:31.773Z,97100.94
2022-08-16T10:37:00.741Z,97102.03
2022-08-16T10:39:40.845Z,97100.63
2022-08-16T10:42:10.329Z,97111.03
2022-08-16T10:44:40.270Z,97101.06
2022-08-16T10:47:09.604Z,97103.09
2022-08-16T10:49:39.112Z,97104.44
2022-08-16T10:52:19.047Z,97096.13
2022-08-16T10:57:36.303Z,97094.56
2022-08-16T11:00:22.305Z,97087.47
2022-08-16T11:02:58.249Z,97093.63
2022-08-16T11:05:58.666Z,97094.81
2022-08-16T11:08:16.325Z,97106.53
2022-08-16T11:11:04.846Z,97100.09
2022-08-16T11:16:27.915Z,97096.97
2022-08-16T11:19:12.638Z,97090.06
2022-08-16T11:24:39.838Z,97077.13
2022-08-16T11:27:23.239Z,97073.97
2022-08-16T11:29:55.088Z,97074.75
2022-08-16T11:32:32.418Z,97082.59
2022-08-16T11:35:10.472Z,97099.81
2022-08-16T11:40:44.177Z,97098.03
2022-08-16T11:43:11.391Z,97099.94
2022-08-16T11:45:38.402Z,97098.50
2022-08-16T11:48:06.287Z,97088.34
2022-08-16T11:50:33.751Z,97090.03
2022-08-16T11:53:08.300Z,97102.63
2022-08-16T11:55:38.144Z,97108.59
2022-08-16T11:58:06.628Z,97100.56
2022-08-16T12:00:51.124Z,97100.47
2022-08-16T12:03:23.856Z,97096.59
2022-08-16T12:05:56.491Z,97089.00
2022-08-16T12:08:25.931Z,97085.50
2022-08-16T12:10:54.259Z,97099.09
2022-08-16T12:13:26.368Z,97081.31
2022-08-16T12:15:53.154Z,97096.53
2022-08-16T12:18:20.885Z,97093.41
2022-08-16T12:20:52.033Z,97092.69
2022-08-16T12:23:21.988Z,97094.03
2022-08-16T12:25:48.668Z,97091.19
2022-08-16T12:28:25.553Z,97086.47
2022-08-16T12:31:04.659Z,97097.41
2022-08-16T12:33:32.375Z,97098.13
2022-08-16T12:36:10.103Z,97091.94
2022-08-16T12:38:46.717Z,97088.75
2022-08-16T12:41:15.920Z,97092.44
2022-08-16T12:43:52.691Z,97087.94
2022-08-16T12:46:24.672Z,97092.75
2022-08-16T12:48:58.313Z,97087.63
2022-08-16T12:51:57.603Z,97085.53
2022-08-16T12:54:19.480Z,97077.13
2022-08-16T12:56:47.459Z,97078.38
2022-08-16T12:59:31.167Z,97073.41
2022-08-16T13:02:03.950Z,97073.72
2022-08-16T13:04:34.063Z,97067.31
2022-08-16T13:07:04.712Z,97078.75
2022-08-16T13:09:42.447Z,97078.75
2022-08-16T13:12:19.530Z,97073.25
2022-08-16T13:14:47.832Z,97065.03
2022-08-16T13:17:23.963Z,97055.41
2022-08-16T13:20:10.994Z,97065.19
2022-08-16T13:22:41.763Z,97066.66
2022-08-16T13:25:10.152Z,97055.56
2022-08-16T13:28:01.732Z,97051.06
2022-08-16T13:30:36.553Z,97049.28
2022-08-16T13:33:10.758Z,97050.03
2022-08-16T13:35:42.671Z,97035.50
2022-08-16T13:38:10.356Z,97031.97
2022-08-16T13:40:49.805Z,97031.97
2022-08-16T13:43:22.901Z,97030.03
2022-08-16T13:45:50.477Z,97016.34
2022-08-16T13:48:24.922Z,97032.06
2022-08-16T13:51:02.467Z,97015.50
2022-08-16T13:53:30.963Z,97017.88
2022-08-16T13:55:59.560Z,97020.03
2022-08-16T13:58:37.265Z,97025.28
2022-08-16T14:01:21.067Z,97017.50
2022-08-16T14:03:54.503Z,97011.66
2022-08-16T14:06:21.920Z,97005.66
2022-08-16T14:09:06.270Z,97013.75
2022-08-16T14:11:34.497Z,97014.56
2022-08-16T14:14:01.845Z,97019.25
2022-08-16T14:16:34.096Z,97001.50
2022-08-16T14:19:02.306Z,97007.34
2022-08-16T14:21:35.548Z,96986.19
2022-08-16T14:24:12.741Z,96989.84
2022-08-16T14:26:51.076Z,96997.59
2022-08-16T14:29:20.218Z,97004.34
2022-08-16T14:31:53.641Z,97004.50
2022-08-16T14:34:21.236Z,96993.56
2022-08-16T14:36:53.065Z,96995.16
2022-08-16T14:39:21.955Z,96984.38
2022-08-16T14:41:49.053Z,96994.41
2022-08-16T14:44:20.025Z,96981.81
2022-08-16T14:46:48.661Z,96996.91
2022-08-16T14:49:15.209Z,97003.03
2022-08-16T14:51:46.101Z,96998.06
2022-08-16T14:54:13.035Z,96992.09
2022-08-16T14:56:43.286Z,97005.56
2022-08-16T14:59:13.777Z,97013.25
2022-08-16T15:01:58.062Z,97026.56
2022-08-16T15:04:37.931Z,97017.16
2022-08-16T15:07:10.805Z,97016.19
2022-08-16T15:09:44.354Z,97013.53
2022-08-16T15:12:33.664Z,96995.13
2022-08-16T15:15:11.994Z,97002.69
2022-08-16T15:17:40.153Z,96996.16
2022-08-16T15:20:08.918Z,96990.63
2022-08-16T15:22:43.028Z,96982.88
2022-08-16T15:25:30.968Z,96980.13
2022-08-16T15:28:00.819Z,96989.19
2022-08-16T15:30:57.447Z,96990.81
2022-08-16T15:33:27.289Z,96990.25
2022-08-16T15:35:55.500Z,96982.56
2022-08-16T15:38:55.323Z,96974.34
2022-08-16T15:41:53.894Z,96973.81
2022-08-16T15:44:23.967Z,96965.47
2022-08-16T15:46:58.650Z,96990.75
2022-08-16T15:49:37.346Z,96987.63
2022-08-16T15:52:24.975Z,96982.25
2022-08-16T15:54:57.175Z,96993.47
2022-08-16T15:57:26.638Z,96995.09
2022-08-16T15:59:56.309Z,97000.03
2022-08-16T16:02:31.696Z,96987.19
2022-08-16T16:05:09.493Z,97001.50
2022-08-16T16:07:40.647Z,97013.97
2022-08-16T16:10:13.374Z,97007.47
2022-08-16T16:12:51.656Z,97020.97
2022-08-16T16:15:24.374Z,97004.81
2022-08-16T16:17:52.571Z,97030.59
2022-08-16T16:20:27.589Z,97050.50
2022-08-16T16:23:01.799Z,97073.44
2022-08-16T16:25:30.627Z,97075.78
2022-08-16T16:27:59.876Z,97074.84
2022-08-16T16:30:38.189Z,97063.59
2022-08-16T16:33:21.058Z,97057.38
2022-08-16T16:35:56.453Z,97068.38
2022-08-16T16:38:31.062Z,97084.41
2022-08-16T16:41:00.272Z,97077.41
2022-08-16T16:43:31.626Z,97076.84
2022-08-16T16:45:59.193Z,97083.28
2022-08-16T16:48:34.559Z,97101.75
2022-08-16T16:51:09.550Z,97104.47
2022-08-16T16:53:41.258Z,97097.44
2022-08-16T16:56:10.448Z,97098.09
2022-08-16T16:59:00.939Z,97092.88
2022-08-16T17:01:56.757Z,97125.09
2022-08-16T17:04:31.264Z,97152.47
2022-08-16T17:06:59.444Z,97169.25
2022-08-16T17:09:26.061Z,97166.50
2022-08-16T17:11:55.092Z,97146.72
2022-08-16T17:17:09.694Z,97144.66
2022-08-16T17:19:40.980Z,97119.50
2022-08-16T17:22:13.939Z,97126.25
2022-08-16T17:24:50.818Z,97131.94
2022-08-16T17:27:32.728Z,97136.25
2022-08-16T17:30:15.914Z,97148.72
2022-08-16T17:33:00.632Z,97162.31
2022-08-16T17:35:37.558Z,97153.66
2022-08-16T17:38:07.662Z,97169.91
2022-08-16T17:39:28.819Z,97148.91
2022-08-16T17:40:47.469Z,97178.03
2022-08-16T17:43:27.520Z,97197.22
2022-08-16T17:45:54.936Z,97212.63
2022-08-16T17:48:21.628Z,97219.69
2022-08-16T17:50:49.615Z,97259.66
2022-08-16T17:53:22.151Z,97292.34
2022-08-16T17:55:50.630Z,97339.31
2022-08-16T17:58:22.749Z,97367.09
2022-08-16T18:00:52.928Z,97385.59
2022-08-16T18:04:06.937Z,97418.78
2022-08-16T18:06:13.454Z,97412.78
2022-08-16T18:08:41.546Z,97397.06
2022-08-16T18:11:10.486Z,97360.44
2022-08-16T18:13:42.929Z,97344.47
2022-08-16T18:16:10.350Z,97326.66
2022-08-16T18:18:37.293Z,97303.06
2022-08-16T18:21:22.720Z,97303.66
2022-08-16T18:23:49.503Z,97306.56
2022-08-16T18:26:16.399Z,97285.31
2022-08-16T18:28:43.284Z,97288.34
2022-08-16T18:31:10.236Z,97286.53
2022-08-16T18:33:43.688Z,97287.69
2022-08-16T18:36:20.076Z,97286.59
2022-08-16T18:38:49.680Z,97278.16
2022-08-16T18:41:17.083Z,97272.47
2022-08-16T18:44:23.787Z,97271.16
2022-08-16T18:46:31.402Z,97272.84
2022-08-16T18:48:57.963Z,97252.31
2022-08-16T18:51:25.568Z,97261.22
2022-08-16T18:53:55.297Z,97257.91
2022-08-16T18:56:22.307Z,97261.44
2022-08-16T18:58:48.944Z,97258.13
2022-08-16T19:01:15.603Z,97276.81
2022-08-16T19:03:42.333Z,97294.94
2022-08-16T19:06:13.833Z,97292.72
2022-08-16T19:08:43.570Z,97294.06
2022-08-16T19:11:16.708Z,97296.47
2022-08-16T19:13:44.330Z,97288.66
2022-08-16T19:16:12.124Z,97291.59
2022-08-16T19:18:39.110Z,97310.84
2022-08-16T19:21:07.340Z,97328.94
2022-08-16T19:23:37.303Z,97333.47
2022-08-16T19:26:07.835Z,97326.50
2022-08-16T19:28:50.896Z,97326.25
2022-08-16T19:31:32.715Z,97330.19
2022-08-16T19:34:00.369Z,97348.06
2022-08-16T19:36:35.104Z,97366.06
2022-08-16T19:39:10.255Z,97373.91
2022-08-16T19:41:39.750Z,97356.28
2022-08-16T19:44:06.824Z,97390.44
2022-08-16T19:46:33.541Z,97394.31
2022-08-16T19:49:00.269Z,97408.91
2022-08-16T19:51:27.129Z,97404.03
2022-08-16T19:53:54.365Z,97412.16
2022-08-16T19:56:24.871Z,97413.13
2022-08-16T19:59:18.819Z,97437.72
2022-08-16T20:01:43.875Z,97477.00
2022-08-16T20:04:12.706Z,97483.50
2022-08-16T20:06:39.805Z,97482.09
2022-08-16T20:09:06.870Z,97510.28
2022-08-16T20:11:34.880Z,97510.38
2022-08-16T20:14:02.021Z,97499.75
2022-08-16T20:16:28.622Z,97516.34
2022-08-16T20:18:55.371Z,97512.41
2022-08-16T20:21:24.922Z,97503.66
2022-08-16T20:24:01.267Z,97518.47
2022-08-16T20:26:42.793Z,97510.53
2022-08-16T20:29:09.508Z,97550.94
2022-08-16T20:31:36.235Z,97544.03
2022-08-16T20:34:02.883Z,97538.69
2022-08-16T20:36:29.936Z,97512.88
2022-08-16T20:38:57.963Z,97521.25
2022-08-16T20:44:10.462Z,97527.13
2022-08-16T20:46:39.980Z,97540.06
2022-08-16T20:49:08.943Z,97532.72
2022-08-16T20:51:49.568Z,97518.81
2022-08-16T20:54:19.686Z,97493.25
2022-08-16T20:56:46.727Z,97496.50
2022-08-16T20:59:13.463Z,97471.19
2022-08-16T21:01:46.577Z,97472.81
2022-08-16T21:04:19.916Z,97483.63
2022-08-16T21:06:53.999Z,97493.47
2022-08-16T21:09:32.445Z,97484.03
2022-08-16T21:12:01.830Z,97453.25
2022-08-16T21:14:29.694Z,97453.34
2022-08-16T21:17:01.361Z,97454.84
2022-08-16T21:19:28.047Z,97431.84
2022-08-16T21:21:56.636Z,97419.00
2022-08-16T21:24:23.517Z,97405.66
2022-08-16T21:26:55.880Z,97387.72
2022-08-16T21:29:24.886Z,97373.00
2022-08-16T21:31:52.241Z,97372.75
2022-08-16T21:34:18.806Z,97391.06
2022-08-16T21:36:46.305Z,97374.97
2022-08-16T21:39:12.956Z,97385.41
2022-08-16T21:41:39.646Z,97386.69
2022-08-16T21:44:06.429Z,97366.06
2022-08-16T21:46:33.957Z,97370.50
2022-08-16T21:49:00.600Z,97381.72
2022-08-16T21:51:29.372Z,97374.34
2022-08-16T21:53:59.598Z,97378.78
2022-08-16T21:56:26.236Z,97386.97
2022-08-16T21:58:53.734Z,97389.66
2022-08-16T22:01:24.086Z,97418.59
2022-08-16T22:04:01.543Z,97395.81
2022-08-16T22:06:39.139Z,97437.47
2022-08-16T22:09:07.076Z,97406.34
2022-08-16T22:11:33.696Z,97409.94
2022-08-16T22:14:00.887Z,97379.59
2022-08-16T22:16:31.478Z,97391.28
2022-08-16T22:19:00.801Z,97380.06
2022-08-16T22:21:30.859Z,97375.66
2022-08-16T22:23:58.936Z,97358.75
2022-08-16T22:26:30.460Z,97351.81
2022-08-16T22:29:03.437Z,97363.03
2022-08-16T22:31:33.758Z,97352.66
2022-08-16T22:34:03.855Z,97351.13
2022-08-16T22:36:33.865Z,97359.19
2022-08-16T22:39:04.801Z,97332.13
2022-08-16T22:41:32.860Z,97360.22
2022-08-16T22:44:03.818Z,97343.94
2022-08-16T22:46:34.936Z,97374.00
2022-08-16T22:49:06.154Z,97378.53
2022-08-16T22:51:33.348Z,97389.88
2022-08-16T22:54:05.856Z,97394.78
2022-08-16T22:56:48.854Z,97376.91
2022-08-16T22:59:15.457Z,97381.94
2022-08-16T23:01:42.215Z,97367.22
2022-08-16T23:04:08.823Z,97368.41
2022-08-16T23:06:35.368Z,97379.38
2022-08-16T23:09:02.742Z,97356.28
2022-08-16T23:11:29.418Z,97374.81
2022-08-16T23:13:56.699Z,97377.28
2022-08-16T23:16:32.196Z,97374.72
2022-08-16T23:19:06.237Z,97392.22
2022-08-16T23:21:35.020Z,97368.44
2022-08-16T23:24:04.742Z,97365.84
2022-08-16T23:26:43.881Z,97329.56
2022-08-16T23:29:22.079Z,97331.44
2022-08-16T23:31:53.922Z,97352.16
2022-08-16T23:34:22.510Z,97351.59
2022-08-16T23:36:49.104Z,97352.28
2022-08-16T23:39:15.682Z,97338.03
2022-08-16T23:41:43.857Z,97341.06
2022-08-16T23:44:56.699Z,97334.69
2022-08-16T23:46:57.298Z,97351.72
2022-08-16T23:49:58.780Z,97347.75
2022-08-16T23:52:10.882Z,97376.34
2022-08-16T23:54:37.554Z,97362.69
2022-08-16T23:57:08.431Z,97328.03
2022-08-16T23:59:52.692Z,97320.72
